createdAt,value
2019-04-13T00:02:29.131Z,6.60
2019-04-13T00:05:17.588Z,6.07
2019-04-13T00:07:49.249Z,4.57
2019-04-13T00:10:29.563Z,4.80
2019-04-13T00:13:00.394Z,6.83
2019-04-13T00:15:30.397Z,4.53
2019-04-13T00:18:00.428Z,6.83
2019-04-13T00:20:30.413Z,5.90
2019-04-13T00:23:00.357Z,6.00
2019-04-13T00:25:30.304Z,3.93
2019-04-13T00:28:00.321Z,4.47
2019-04-13T00:30:30.582Z,7.33
2019-04-13T00:33:00.627Z,5.47
2019-04-13T00:35:30.576Z,5.47
2019-04-13T00:38:02.322Z,5.53
2019-04-13T00:40:32.285Z,6.23
2019-04-13T00:43:02.261Z,4.90
2019-04-13T00:45:32.221Z,5.30
2019-04-13T00:48:02.306Z,5.63
2019-04-13T00:50:32.363Z,4.20
2019-04-13T00:53:02.293Z,7.80
2019-04-13T00:55:32.244Z,6.57
2019-04-13T00:58:02.261Z,4.30
2019-04-13T01:00:32.308Z,5.40
2019-04-13T01:03:02.299Z,6.43
2019-04-13T01:05:32.321Z,4.87
2019-04-13T01:08:02.398Z,5.13
2019-04-13T01:10:33.947Z,5.43
2019-04-13T01:13:04.114Z,7.97
2019-04-13T01:15:34.171Z,7.07
2019-04-13T01:18:06.880Z,5.67
2019-04-13T01:20:36.800Z,5.53
2019-04-13T01:23:06.763Z,7.00
2019-04-13T01:25:36.840Z,5.70
2019-04-13T01:28:06.923Z,6.20
2019-04-13T01:30:36.988Z,7.63
2019-04-13T01:33:06.945Z,4.77
2019-04-13T01:35:36.928Z,6.10
2019-04-13T01:38:06.898Z,6.53
2019-04-13T01:40:36.870Z,5.83
2019-04-13T01:43:06.828Z,4.93
2019-04-13T01:45:37.847Z,4.63
2019-04-13T01:48:07.797Z,6.93
2019-04-13T01:50:37.754Z,8.50
2019-04-13T01:53:07.769Z,5.13
2019-04-13T01:55:37.786Z,6.03
2019-04-13T01:58:07.773Z,4.77
2019-04-13T02:01:09.335Z,4.33
2019-04-13T02:03:42.809Z,6.93
2019-04-13T02:06:12.786Z,4.23
2019-04-13T02:09:00.909Z,6.07
2019-04-13T02:11:38.378Z,5.47
2019-04-13T02:14:08.405Z,6.60
2019-04-13T02:16:38.466Z,5.87
2019-04-13T02:19:08.487Z,4.67
2019-04-13T02:21:38.448Z,6.03
2019-04-13T02:24:09.117Z,7.40
2019-04-13T02:26:39.086Z,6.60
2019-04-13T02:29:09.028Z,5.47
2019-04-13T02:31:38.975Z,8.37
2019-04-13T02:34:08.925Z,5.90
2019-04-13T02:36:39.232Z,5.17
2019-04-13T02:39:09.244Z,6.03
2019-04-13T02:41:39.266Z,5.00
2019-04-13T02:44:09.295Z,6.90
2019-04-13T02:46:39.276Z,6.77
2019-04-13T02:49:09.305Z,6.03
2019-04-13T02:51:39.243Z,7.80
2019-04-13T02:54:09.298Z,8.40
2019-04-13T02:56:39.276Z,6.77
2019-04-13T02:59:09.286Z,6.50
2019-04-13T03:01:41.072Z,4.67
2019-04-13T03:04:11.038Z,6.53
2019-04-13T03:06:41.067Z,7.53
2019-04-13T03:09:11.051Z,6.17
2019-04-13T03:11:41.172Z,7.40
2019-04-13T03:14:11.525Z,7.33
2019-04-13T03:17:06.506Z,6.43
2019-04-13T03:19:39.865Z,4.80
2019-04-13T03:22:09.917Z,7.97
2019-04-13T03:24:39.868Z,7.97
2019-04-13T03:27:09.872Z,6.20
2019-04-13T03:29:39.886Z,8.13
2019-04-13T03:32:09.934Z,8.60
2019-04-13T03:34:39.929Z,5.83
2019-04-13T03:37:09.967Z,6.30
2019-04-13T03:39:39.953Z,5.47
2019-04-13T03:42:10.026Z,9.07
2019-04-13T03:44:40.121Z,8.43
2019-04-13T03:47:11.073Z,6.63
2019-04-13T03:49:41.287Z,7.67
2019-04-13T03:52:11.229Z,7.37
2019-04-13T03:54:42.884Z,6.57
2019-04-13T03:57:12.985Z,7.17
2019-04-13T03:59:42.961Z,6.37
2019-04-13T04:02:12.929Z,7.17
2019-04-13T04:04:42.908Z,7.63
2019-04-13T04:07:12.872Z,9.10
2019-04-13T04:09:42.863Z,7.93
2019-04-13T04:12:12.813Z,9.17
2019-04-13T04:14:42.829Z,6.43
2019-04-13T04:17:13.169Z,8.10
2019-04-13T04:19:43.166Z,7.03
2019-04-13T04:22:13.146Z,9.73
2019-04-13T04:24:43.162Z,7.60
2019-04-13T04:27:13.130Z,6.03
2019-04-13T04:29:43.810Z,9.43
2019-04-13T04:32:13.874Z,9.13
2019-04-13T04:34:43.800Z,7.70
2019-04-13T04:37:13.756Z,8.57
2019-04-13T04:39:43.699Z,6.77
2019-04-13T04:42:13.665Z,6.67
2019-04-13T04:44:45.382Z,9.03
2019-04-13T04:47:15.316Z,8.10
2019-04-13T04:49:45.298Z,9.60
2019-04-13T04:52:15.348Z,8.30
2019-04-13T04:54:45.296Z,7.13
2019-04-13T04:57:15.277Z,9.57
2019-04-13T04:59:45.575Z,8.30
2019-04-13T05:02:15.643Z,12.47
2019-04-13T05:04:45.597Z,10.30
2019-04-13T05:07:15.598Z,7.67
2019-04-13T05:09:46.485Z,6.47
2019-04-13T05:12:16.451Z,10.13
2019-04-13T05:14:47.690Z,6.80
2019-04-13T05:17:18.489Z,7.73
2019-04-13T05:19:48.501Z,6.37
2019-04-13T05:22:26.210Z,8.83
2019-04-13T05:24:50.230Z,9.40
2019-04-13T05:27:20.315Z,6.70
2019-04-13T05:29:50.368Z,7.90
2019-04-13T05:32:20.426Z,7.40
2019-04-13T05:34:50.388Z,8.00
2019-04-13T05:37:20.345Z,6.07
2019-04-13T05:39:50.393Z,7.07
2019-04-13T05:42:21.492Z,6.73
2019-04-13T05:44:51.439Z,6.63
2019-04-13T05:47:21.590Z,7.27
2019-04-13T05:49:51.594Z,6.83
2019-04-13T05:52:22.306Z,6.83
2019-04-13T05:54:52.383Z,7.20
2019-04-13T05:57:22.458Z,7.30
2019-04-13T05:59:52.395Z,5.63
2019-04-13T06:02:23.733Z,6.77
2019-04-13T06:04:53.694Z,6.53
2019-04-13T06:07:23.724Z,6.47
2019-04-13T06:09:54.674Z,7.03
2019-04-13T06:12:24.830Z,6.20
2019-04-13T06:14:54.909Z,7.70
2019-04-13T06:17:25.931Z,7.90
2019-04-13T06:19:56.027Z,6.73
2019-04-13T06:22:26.014Z,9.20
2019-04-13T06:24:56.028Z,6.47
2019-04-13T06:27:26.020Z,6.00
2019-04-13T06:29:58.133Z,5.13
2019-04-13T06:32:49.774Z,5.83
2019-04-13T06:35:26.165Z,5.30
2019-04-13T06:37:56.166Z,7.97
2019-04-13T06:40:26.154Z,7.03
2019-04-13T06:42:56.093Z,6.53
2019-04-13T06:45:26.060Z,5.80
2019-04-13T06:48:00.210Z,11.33
2019-04-13T06:50:27.791Z,7.67
2019-04-13T06:52:58.169Z,8.20
2019-04-13T06:55:28.150Z,9.40
2019-04-13T06:57:58.150Z,6.33
2019-04-13T07:00:28.130Z,6.15
2019-04-13T07:02:58.165Z,7.87
2019-04-13T07:05:28.910Z,9.40
2019-04-13T07:08:06.632Z,7.40
2019-04-13T07:10:54.723Z,7.50
2019-04-13T07:13:34.943Z,5.90
2019-04-13T07:16:11.312Z,7.03
2019-04-13T07:18:41.419Z,5.30
2019-04-13T07:21:11.397Z,6.13
2019-04-13T07:23:41.398Z,8.17
2019-04-13T07:26:11.390Z,7.13
2019-04-13T07:28:42.457Z,7.97
2019-04-13T07:31:12.489Z,8.03
2019-04-13T07:33:42.510Z,6.03
2019-04-13T07:36:12.530Z,6.73
2019-04-13T07:38:46.848Z,6.33
2019-04-13T07:41:14.122Z,12.30
2019-04-13T07:43:46.045Z,8.13
2019-04-13T07:46:47.528Z,7.30
2019-04-13T07:49:39.815Z,7.37
2019-04-13T07:52:28.907Z,7.50
2019-04-13T07:54:57.528Z,5.43
2019-04-13T07:57:27.572Z,5.20
2019-04-13T07:59:57.549Z,6.77
2019-04-13T08:02:27.544Z,6.13
2019-04-13T08:04:58.929Z,6.97
2019-04-13T08:07:28.952Z,6.07
2019-04-13T08:09:59.491Z,3.90
2019-04-13T08:12:29.543Z,5.43
2019-04-13T08:15:00.932Z,5.80
2019-04-13T08:17:31.805Z,3.53
2019-04-13T08:20:30.523Z,4.33
2019-04-13T08:23:01.887Z,4.23
2019-04-13T08:25:41.550Z,4.73
2019-04-13T08:28:15.268Z,5.00
2019-04-13T08:30:43.925Z,6.57
2019-04-13T08:33:13.869Z,6.63
2019-04-13T08:35:43.891Z,4.53
2019-04-13T08:38:13.950Z,4.33
2019-04-13T08:40:46.618Z,3.90
2019-04-13T08:43:15.889Z,4.93
2019-04-13T08:45:46.194Z,4.13
2019-04-13T08:48:16.161Z,4.00
2019-04-13T08:50:46.486Z,4.93
2019-04-13T08:53:16.502Z,4.47
2019-04-13T08:55:46.507Z,2.60
2019-04-13T08:58:16.546Z,5.27
2019-04-13T09:00:46.517Z,4.03
2019-04-13T09:03:16.554Z,3.23
2019-04-13T09:05:46.526Z,4.57
2019-04-13T09:08:28.946Z,2.47
2019-04-13T09:10:49.422Z,3.50
2019-04-13T09:13:20.820Z,4.37
2019-04-13T09:15:51.678Z,2.47
2019-04-13T09:18:44.333Z,2.93
2019-04-13T09:21:33.940Z,3.33
2019-04-13T09:24:06.394Z,3.27
2019-04-13T09:26:37.180Z,3.03
2019-04-13T09:29:07.433Z,2.50
2019-04-13T09:31:37.482Z,3.03
2019-04-13T09:34:11.813Z,2.90
2019-04-13T09:36:42.206Z,3.45
2019-04-13T09:39:12.154Z,5.50
2019-04-13T09:41:42.142Z,6.00
2019-04-13T09:44:22.071Z,3.00
2019-04-13T09:46:52.796Z,2.77
2019-04-13T09:49:22.866Z,4.83
2019-04-13T09:51:52.898Z,3.80
2019-04-13T09:54:22.926Z,3.77
2019-04-13T09:56:52.891Z,3.07
2019-04-13T09:59:22.934Z,2.47
2019-04-13T10:01:52.924Z,2.53
2019-04-13T10:04:23.013Z,3.07
2019-04-13T10:06:54.060Z,2.90
2019-04-13T10:09:24.337Z,2.60
2019-04-13T10:12:29.956Z,2.73
2019-04-13T10:15:24.018Z,2.40
2019-04-13T10:17:57.432Z,3.37
2019-04-13T10:20:27.472Z,3.17
2019-04-13T10:22:57.479Z,3.03
2019-04-13T11:09:21.860Z,41.37
2019-04-13T11:11:49.202Z,40.53
2019-04-13T11:14:20.652Z,33.07
2019-04-13T11:16:53.074Z,37.40
2019-04-13T11:30:50.108Z,23.77
2019-04-13T11:33:20.820Z,24.07
2019-04-13T11:35:51.344Z,21.73
2019-04-13T11:38:21.978Z,22.60
2019-04-13T11:41:00.065Z,20.17
2019-04-13T11:43:38.581Z,18.67
2019-04-13T11:46:21.985Z,18.60
2019-04-13T11:48:56.655Z,25.47
2019-04-13T11:51:32.361Z,21.07
2019-04-13T11:54:04.215Z,14.43
2019-04-13T11:56:37.121Z,16.23
2019-04-13T11:59:08.001Z,14.33
2019-04-13T12:01:57.730Z,13.33
2019-04-13T12:05:00.032Z,17.13
2019-04-13T12:07:50.875Z,17.43
2019-04-13T12:10:46.403Z,16.00
2019-04-13T12:13:34.956Z,15.43
2019-04-13T12:16:37.412Z,15.30
2019-04-13T12:25:03.796Z,11.63
2019-04-13T12:27:34.584Z,11.33
2019-04-13T12:30:10.383Z,14.50
2019-04-13T12:32:39.787Z,17.90
2019-04-13T12:35:11.658Z,12.43
2019-04-13T12:37:42.577Z,10.47
2019-04-13T12:40:29.062Z,8.87
2019-04-13T12:42:59.693Z,8.23
2019-04-13T12:45:30.805Z,10.80
2019-04-13T12:48:01.463Z,7.60
2019-04-13T12:50:32.098Z,7.43
2019-04-13T12:53:02.720Z,10.10
2019-04-13T12:55:33.301Z,10.40
2019-04-13T12:58:03.892Z,7.23
2019-04-13T13:00:59.151Z,6.57
2019-04-13T13:03:29.156Z,10.70
2019-04-13T13:05:59.769Z,12.33
2019-04-13T13:08:30.362Z,12.97
2019-04-13T13:11:00.947Z,14.47
2019-04-13T13:13:31.554Z,12.67
2019-04-13T13:16:02.231Z,12.10
2019-04-13T13:18:32.879Z,12.53
2019-04-13T13:23:39.657Z,3.80
2019-04-13T13:26:10.254Z,3.73
2019-04-13T13:28:43.314Z,4.10
2019-04-13T13:31:13.197Z,4.22
2019-04-13T13:33:43.792Z,4.23
2019-04-13T13:36:14.533Z,3.70
2019-04-13T13:38:45.126Z,3.70
2019-04-13T13:41:15.731Z,3.95
2019-04-13T13:43:47.415Z,3.77
2019-04-13T13:46:18.179Z,2.80
2019-04-13T13:48:48.845Z,2.50
2019-04-13T13:51:20.549Z,2.30
2019-04-13T13:53:51.266Z,2.57
2019-04-13T13:56:21.874Z,2.57
2019-04-13T13:58:57.263Z,2.73
2019-04-13T14:01:34.672Z,2.62
2019-04-13T14:04:05.489Z,2.33
2019-04-13T14:06:37.246Z,2.47
2019-04-13T14:09:10.328Z,2.60
2019-04-13T14:11:40.942Z,3.13
2019-04-13T14:14:11.535Z,2.40
2019-04-13T14:16:42.510Z,2.13
2019-04-13T14:19:14.725Z,2.23
2019-04-13T14:21:45.374Z,2.60
2019-04-13T14:24:17.434Z,3.03
2019-04-13T14:26:48.251Z,2.33
2019-04-13T14:29:18.958Z,2.25
2019-04-13T14:31:49.612Z,3.03
2019-04-13T14:34:20.277Z,3.57
2019-04-13T14:36:50.900Z,3.13
2019-04-13T14:39:21.498Z,3.70
2019-04-13T14:41:52.104Z,5.43
2019-04-13T14:44:22.709Z,3.27
2019-04-13T14:46:53.272Z,2.87
2019-04-13T14:49:25.615Z,3.80
2019-04-13T14:51:56.232Z,4.37
2019-04-13T14:54:26.813Z,3.23
2019-04-13T14:56:57.558Z,3.60
2019-04-13T14:59:28.196Z,3.90
2019-04-13T15:01:58.814Z,3.90
2019-04-13T15:04:29.946Z,3.57
2019-04-13T15:07:00.555Z,4.20
2019-04-13T15:09:31.236Z,4.80
2019-04-13T15:12:01.816Z,5.93
2019-04-13T15:14:32.577Z,4.20
2019-04-13T15:17:06.331Z,4.10
2019-04-13T15:19:41.349Z,6.77
2019-04-13T15:22:10.640Z,5.00
2019-04-13T15:24:41.309Z,5.93
2019-04-13T15:27:12.132Z,6.53
2019-04-13T15:29:43.613Z,6.17
2019-04-13T15:32:14.757Z,5.70
2019-04-13T15:34:46.559Z,5.40
2019-04-13T15:37:17.659Z,8.40
2019-04-13T15:39:50.067Z,6.60
2019-04-13T15:42:24.303Z,6.33
2019-04-13T15:44:55.504Z,6.13
2019-04-13T15:47:28.771Z,5.33
2019-04-13T15:50:01.008Z,4.87
2019-04-13T15:52:32.707Z,5.73
2019-04-13T15:55:04.354Z,5.60
2019-04-13T15:57:35.782Z,8.87
2019-04-13T16:00:09.171Z,6.77
2019-04-13T16:02:41.115Z,5.50
2019-04-13T16:05:12.374Z,6.83
2019-04-13T16:07:43.033Z,5.83
2019-04-13T16:10:31.820Z,7.20
2019-04-13T16:13:04.766Z,5.97
2019-04-13T16:15:38.115Z,8.73
2019-04-13T16:18:08.985Z,6.20
2019-04-13T16:20:40.050Z,5.90
2019-04-13T16:23:11.179Z,5.90
2019-04-13T16:25:42.405Z,6.43
2019-04-13T16:28:24.385Z,7.25
2019-04-13T16:31:08.118Z,6.03
2019-04-13T16:34:14.151Z,6.10
2019-04-13T16:36:54.033Z,4.70
2019-04-13T16:39:24.941Z,5.60
2019-04-13T16:42:03.267Z,6.20
2019-04-13T16:44:33.612Z,5.67
2019-04-13T16:47:18.789Z,6.28
2019-04-13T16:49:56.744Z,5.50
2019-04-13T16:52:47.365Z,5.77
2019-04-13T16:55:22.272Z,4.53
2019-04-13T16:58:11.408Z,5.47
2019-04-13T17:01:10.035Z,6.00
2019-04-13T17:03:46.095Z,4.13
2019-04-13T17:06:17.028Z,4.67
2019-04-13T17:08:49.124Z,4.13
2019-04-13T17:11:21.254Z,3.98
2019-04-13T17:13:53.360Z,4.07
2019-04-13T17:16:24.069Z,3.92
2019-04-13T17:19:13.915Z,4.57
2019-04-13T17:22:13.255Z,3.47
2019-04-13T17:25:02.938Z,3.53
2019-04-13T17:28:04.745Z,3.50
2019-04-13T17:30:46.658Z,3.57
2019-04-13T17:33:44.104Z,4.50
2019-04-13T17:36:16.960Z,2.93
2019-04-13T17:38:47.934Z,5.20
2019-04-13T17:41:28.043Z,3.50
2019-04-13T17:44:08.115Z,4.10
2019-04-13T17:46:50.077Z,3.23
2019-04-13T17:49:52.799Z,4.12
2019-04-13T17:52:41.209Z,4.77
2019-04-13T17:55:33.977Z,4.22
2019-04-13T17:58:23.267Z,3.53
2019-04-13T18:01:31.185Z,4.57
2019-04-13T18:04:26.775Z,3.90
2019-04-13T18:07:13.797Z,3.70
2019-04-13T18:09:51.994Z,4.80
2019-04-13T18:13:01.373Z,4.75
2019-04-13T18:15:48.938Z,3.83
2019-04-13T18:18:45.520Z,4.30
2019-04-13T18:21:16.174Z,3.42
2019-04-13T18:23:46.912Z,4.23
2019-04-13T18:26:18.525Z,4.03
2019-04-13T18:28:50.116Z,3.50
2019-04-13T18:31:20.898Z,4.83
2019-04-13T18:33:51.596Z,6.13
2019-04-13T18:36:23.546Z,4.57
2019-04-13T18:38:54.302Z,3.83
2019-04-13T18:41:24.922Z,5.10
2019-04-13T18:43:56.430Z,4.60
2019-04-13T18:46:27.801Z,4.80
2019-04-13T18:48:58.951Z,4.70
2019-04-13T18:51:31.205Z,8.67
2019-04-13T18:54:03.068Z,6.30
2019-04-13T18:56:35.297Z,5.23
2019-04-13T18:59:08.724Z,5.40
2019-04-13T19:01:41.064Z,5.13
2019-04-13T19:04:11.816Z,6.42
2019-04-13T19:06:42.544Z,4.47
2019-04-13T19:09:13.228Z,5.30
2019-04-13T19:11:44.134Z,6.00
2019-04-13T19:14:14.786Z,5.53
2019-04-13T19:16:45.387Z,5.50
2019-04-13T19:19:16.042Z,6.23
2019-04-13T19:21:46.749Z,7.20
2019-04-13T19:24:17.438Z,4.97
2019-04-13T19:26:48.153Z,4.95
2019-04-13T19:29:18.730Z,6.23
2019-04-13T19:31:49.384Z,7.67
2019-04-13T19:34:20.087Z,6.37
2019-04-13T19:36:50.710Z,5.43
2019-04-13T19:39:21.388Z,5.50
2019-04-13T19:41:52.123Z,5.13
2019-04-13T19:44:22.881Z,7.73
2019-04-13T19:46:53.596Z,6.30
2019-04-13T19:49:24.202Z,7.20
2019-04-13T19:52:20.877Z,5.17
2019-04-13T19:54:51.505Z,7.07
2019-04-13T19:57:22.314Z,5.03
2019-04-13T19:59:52.926Z,6.27
2019-04-13T20:02:26.154Z,5.63
2019-04-13T20:04:56.883Z,5.13
2019-04-13T20:07:27.572Z,5.80
2019-04-13T20:09:58.325Z,7.37
2019-04-13T20:12:29.119Z,5.50
2019-04-13T20:15:01.232Z,5.35
2019-04-13T20:17:32.028Z,6.30
2019-04-13T20:20:02.780Z,7.10
2019-04-13T20:22:35.241Z,5.07
2019-04-13T20:25:07.129Z,5.13
2019-04-13T20:27:41.071Z,6.07
2019-04-13T20:30:13.064Z,7.75
2019-04-13T20:32:44.894Z,5.27
2019-04-13T20:35:15.807Z,6.23
2019-04-13T20:37:46.951Z,6.13
2019-04-13T20:40:29.340Z,6.30
2019-04-13T20:43:01.354Z,7.23
2019-04-13T20:45:31.962Z,6.47
2019-04-13T20:48:06.031Z,11.00
2019-04-13T20:50:37.001Z,6.03
2019-04-13T20:53:08.599Z,8.10
2019-04-13T20:55:41.359Z,6.47
2019-04-13T20:58:13.943Z,5.43
2019-04-13T21:00:44.741Z,5.47
2019-04-13T21:03:16.484Z,7.10
2019-04-13T21:05:47.233Z,6.57
2019-04-13T21:08:17.901Z,6.53
2019-04-13T21:10:48.642Z,7.50
2019-04-13T21:13:19.432Z,5.70
2019-04-13T21:15:51.002Z,7.90
2019-04-13T21:18:21.877Z,7.90
2019-04-13T21:20:53.220Z,6.47
2019-04-13T21:23:23.989Z,5.77
2019-04-13T21:25:55.386Z,7.97
2019-04-13T21:28:26.200Z,8.48
2019-04-13T21:30:57.861Z,5.47
2019-04-13T21:33:29.996Z,8.47
2019-04-13T21:36:00.715Z,7.10
2019-04-13T21:38:32.395Z,7.40
2019-04-13T21:41:04.305Z,10.30
2019-04-13T21:43:36.118Z,7.47
2019-04-13T21:46:08.779Z,10.05
2019-04-13T21:48:39.700Z,7.63
2019-04-13T21:51:29.512Z,8.83
2019-04-13T21:54:10.377Z,8.27
2019-04-13T21:56:42.683Z,7.63
2019-04-13T21:59:13.459Z,9.27
2019-04-13T22:02:13.601Z,10.13
2019-04-13T22:04:45.716Z,9.80
2019-04-13T22:07:17.829Z,8.43
2019-04-13T22:09:49.935Z,9.30
2019-04-13T22:12:20.637Z,9.38
2019-04-13T22:14:58.240Z,8.30
2019-04-13T22:17:24.735Z,8.10
2019-04-13T22:19:55.745Z,9.13
2019-04-13T22:22:27.142Z,10.00
2019-04-13T22:24:59.157Z,8.80
2019-04-13T22:27:46.846Z,6.97
2019-04-13T22:30:08.160Z,11.30
2019-04-13T22:32:49.719Z,7.97
2019-04-13T22:35:41.149Z,6.57
2019-04-13T22:38:11.831Z,8.65
2019-04-13T22:40:43.122Z,7.83
2019-04-13T22:43:15.177Z,9.63
2019-04-13T22:45:47.121Z,9.20
2019-04-13T22:48:24.584Z,7.33
2019-04-13T22:51:07.722Z,7.47
2019-04-13T22:54:12.662Z,6.73
2019-04-13T22:56:46.819Z,6.37
2019-04-13T22:59:17.422Z,9.85
2019-04-13T23:02:00.279Z,7.92
2019-04-13T23:04:31.965Z,7.40
2019-04-13T23:07:02.624Z,7.67
2019-04-13T23:09:34.521Z,7.37
2019-04-13T23:12:05.388Z,7.33
2019-04-13T23:14:37.218Z,7.20
2019-04-13T23:17:07.960Z,11.63
2019-04-13T23:19:39.234Z,11.37
2019-04-13T23:22:10.231Z,9.30
2019-04-13T23:24:40.939Z,7.23
2019-04-13T23:27:11.619Z,8.43
2019-04-13T23:29:43.301Z,7.73
2019-04-13T23:32:14.095Z,8.25
2019-04-13T23:34:44.799Z,8.57
2019-04-13T23:37:15.510Z,8.57
2019-04-13T23:39:47.336Z,6.23
2019-04-13T23:42:18.162Z,6.67
2019-04-13T23:44:48.961Z,8.60
2019-04-13T23:47:20.873Z,9.93
2019-04-13T23:49:51.671Z,11.33
2019-04-13T23:52:22.375Z,7.77
2019-04-13T23:54:54.389Z,7.25
2019-04-13T23:57:46.582Z,7.87
